createdAt,value
2018-05-12T00:00:14.767Z,14.00
2018-05-12T00:00:46.407Z,13.00
2018-05-12T00:01:18.034Z,14.25
2018-05-12T00:01:49.720Z,14.50
2018-05-12T00:02:21.357Z,13.18
2018-05-12T00:02:53.001Z,14.98
2018-05-12T00:03:24.621Z,13.98
2018-05-12T00:03:56.404Z,14.15
2018-05-12T00:04:28.042Z,13.95
2018-05-12T00:04:59.715Z,13.77
2018-05-12T00:05:31.383Z,13.30
2018-05-12T00:06:03.063Z,12.73
2018-05-12T00:06:34.723Z,13.70
2018-05-12T00:07:06.381Z,14.18
2018-05-12T00:07:38.013Z,13.02
2018-05-12T00:08:09.667Z,14.05
2018-05-12T00:08:41.302Z,13.68
2018-05-12T00:09:12.947Z,13.98
2018-05-12T00:09:44.603Z,14.10
2018-05-12T00:10:16.309Z,14.25
2018-05-12T00:10:47.955Z,13.68
2018-05-12T00:11:19.597Z,13.40
2018-05-12T00:11:51.370Z,13.07
2018-05-12T00:12:22.881Z,11.93
2018-05-12T00:12:54.511Z,13.85
2018-05-12T00:13:26.168Z,13.62
2018-05-12T00:13:57.807Z,13.65
2018-05-12T00:14:29.456Z,12.70
2018-05-12T00:15:01.151Z,13.25
2018-05-12T00:15:32.781Z,13.35
2018-05-12T00:16:04.459Z,13.25
2018-05-12T00:16:36.113Z,13.50
2018-05-12T00:17:07.773Z,13.25
2018-05-12T00:17:39.423Z,12.95
2018-05-12T00:18:11.049Z,13.27
2018-05-12T00:18:42.684Z,12.93
2018-05-12T00:19:14.298Z,12.57
2018-05-12T00:19:45.941Z,12.82
2018-05-12T00:20:17.575Z,13.30
2018-05-12T00:20:49.231Z,12.88
2018-05-12T00:21:20.873Z,12.85
2018-05-12T00:21:52.518Z,12.60
2018-05-12T00:22:24.155Z,12.70
2018-05-12T00:22:55.773Z,14.02
2018-05-12T00:23:27.391Z,13.15
2018-05-12T00:23:59.008Z,13.35
2018-05-12T00:24:30.629Z,14.23
2018-05-12T00:25:02.297Z,12.80
2018-05-12T00:25:33.945Z,12.93
2018-05-12T00:26:05.580Z,12.82
2018-05-12T00:26:37.224Z,13.07
2018-05-12T00:27:08.859Z,12.23
2018-05-12T00:27:40.479Z,12.73
2018-05-12T00:28:12.109Z,13.13
2018-05-12T00:28:43.739Z,13.20
2018-05-12T00:29:15.373Z,13.10
2018-05-12T00:29:47.009Z,12.88
2018-05-12T00:30:18.669Z,12.80
2018-05-12T00:30:50.313Z,12.75
2018-05-12T00:31:21.949Z,12.95
2018-05-12T00:31:53.589Z,13.55
2018-05-12T00:32:25.273Z,12.63
2018-05-12T00:32:56.935Z,12.77
2018-05-12T00:33:28.573Z,12.57
2018-05-12T00:34:00.211Z,12.65
2018-05-12T00:34:31.839Z,13.23
2018-05-12T00:35:03.487Z,12.23
2018-05-12T00:35:35.135Z,13.20
2018-05-12T00:36:06.765Z,12.77
2018-05-12T00:36:38.415Z,13.13
2018-05-12T00:37:10.047Z,13.10
2018-05-12T00:37:41.689Z,13.23
2018-05-12T00:38:13.321Z,12.15
2018-05-12T00:38:44.931Z,12.60
2018-05-12T00:39:16.555Z,12.25
2018-05-12T00:39:48.195Z,12.18
2018-05-12T00:40:19.840Z,12.20
2018-05-12T00:40:51.452Z,11.95
2018-05-12T00:41:23.082Z,12.13
2018-05-12T00:41:54.727Z,12.18
2018-05-12T00:42:26.386Z,12.07
2018-05-12T00:42:58.088Z,12.63
2018-05-12T00:43:29.684Z,12.05
2018-05-12T00:44:01.330Z,12.00
2018-05-12T00:44:33.043Z,12.63
2018-05-12T00:45:04.655Z,12.10
2018-05-12T00:45:36.448Z,11.90
2018-05-12T00:46:08.097Z,12.60
2018-05-12T00:46:39.727Z,12.52
2018-05-12T00:47:11.367Z,12.50
2018-05-12T00:47:43.039Z,12.07
2018-05-12T00:48:14.671Z,12.30
2018-05-12T00:48:46.325Z,12.10
2018-05-12T00:49:17.963Z,11.90
2018-05-12T00:49:49.587Z,12.05
2018-05-12T00:50:21.246Z,12.32
2018-05-12T00:50:52.873Z,12.30
2018-05-12T00:51:24.493Z,12.30
2018-05-12T00:51:56.125Z,12.95
2018-05-12T00:52:27.755Z,12.10
2018-05-12T00:52:59.404Z,11.85
2018-05-12T00:53:31.070Z,11.93
2018-05-12T00:54:02.717Z,11.55
2018-05-12T00:54:34.383Z,12.02
2018-05-12T00:55:06.661Z,11.85
2018-05-12T00:55:38.285Z,12.07
2018-05-12T00:56:09.913Z,12.13
2018-05-12T00:56:41.561Z,12.10
2018-05-12T00:57:13.191Z,12.18
2018-05-12T00:57:44.812Z,11.70
2018-05-12T00:58:16.457Z,12.55
2018-05-12T00:58:48.096Z,12.55
2018-05-12T00:59:19.723Z,11.55
2018-05-12T00:59:51.350Z,12.40
2018-05-12T01:00:23.019Z,11.68
2018-05-12T01:00:54.689Z,12.43
2018-05-12T01:01:26.355Z,12.75
2018-05-12T01:01:57.959Z,12.52
2018-05-12T01:02:29.598Z,13.05
2018-05-12T01:03:01.223Z,11.88
2018-05-12T01:03:32.883Z,12.02
2018-05-12T01:04:04.543Z,12.25
2018-05-12T01:04:36.229Z,13.25
2018-05-12T01:05:52.027Z,13.13
2018-05-12T01:06:23.678Z,13.18
2018-05-12T01:06:55.340Z,12.23
2018-05-12T01:07:26.993Z,12.45
2018-05-12T01:07:58.644Z,12.18
2018-05-12T01:08:30.313Z,12.18
2018-05-12T01:09:02.060Z,13.23
2018-05-12T01:09:33.723Z,13.10
2018-05-12T01:10:05.403Z,12.57
2018-05-12T01:10:37.095Z,12.13
2018-05-12T01:11:08.745Z,12.07
2018-05-12T01:11:40.405Z,11.98
2018-05-12T01:12:12.074Z,11.77
2018-05-12T01:12:43.721Z,12.45
2018-05-12T01:13:15.361Z,12.23
2018-05-12T01:13:47.015Z,12.82
2018-05-12T01:14:18.668Z,12.55
2018-05-12T01:14:50.334Z,12.68
2018-05-12T01:15:21.995Z,12.70
2018-05-12T01:15:53.629Z,13.30
2018-05-12T01:16:25.318Z,13.20
2018-05-12T01:16:56.979Z,13.13
2018-05-12T01:17:28.627Z,12.05
2018-05-12T01:18:00.247Z,12.77
2018-05-12T01:18:31.906Z,12.55
2018-05-12T01:19:03.551Z,13.05
2018-05-12T01:19:35.293Z,13.27
2018-05-12T01:20:06.943Z,13.57
2018-05-12T01:20:38.601Z,13.30
2018-05-12T01:21:10.267Z,13.00
2018-05-12T01:21:41.897Z,12.70
2018-05-12T01:22:13.531Z,12.57
2018-05-12T01:22:45.164Z,13.02
2018-05-12T01:23:16.837Z,14.15
2018-05-12T01:23:48.495Z,12.95
2018-05-12T01:24:20.149Z,13.55
2018-05-12T01:24:51.793Z,13.23
2018-05-12T01:25:23.444Z,13.23
2018-05-12T01:25:55.101Z,12.63
2018-05-12T01:26:26.771Z,13.32
2018-05-12T01:26:58.401Z,13.52
2018-05-12T01:27:30.051Z,12.68
2018-05-12T01:28:01.709Z,13.10
2018-05-12T01:28:33.355Z,13.48
2018-05-12T01:29:05.009Z,13.52
2018-05-12T01:29:36.661Z,12.85
2018-05-12T01:30:08.300Z,12.70
2018-05-12T01:30:39.927Z,13.98
2018-05-12T01:31:11.575Z,13.18
2018-05-12T01:31:43.235Z,14.07
2018-05-12T01:32:14.879Z,12.57
2018-05-12T01:32:46.531Z,13.45
2018-05-12T01:33:18.187Z,13.20
2018-05-12T01:33:49.849Z,12.93
2018-05-12T01:34:21.487Z,13.18
2018-05-12T01:34:53.120Z,13.02
2018-05-12T01:35:24.776Z,13.45
2018-05-12T01:35:56.395Z,13.35
2018-05-12T01:36:28.045Z,13.55
2018-05-12T01:36:59.678Z,14.25
2018-05-12T01:37:31.309Z,13.65
2018-05-12T01:38:02.970Z,14.15
2018-05-12T01:38:34.591Z,13.45
2018-05-12T01:39:06.238Z,13.52
2018-05-12T01:39:37.870Z,14.10
2018-05-12T01:40:09.507Z,13.80
2018-05-12T01:40:41.177Z,13.98
2018-05-12T01:41:12.823Z,13.93
2018-05-12T01:41:44.467Z,13.73
2018-05-12T01:42:16.096Z,13.73
2018-05-12T01:42:47.730Z,14.27
2018-05-12T01:43:19.374Z,13.68
2018-05-12T01:43:51.012Z,14.20
2018-05-12T01:44:22.642Z,14.68
2018-05-12T01:44:54.265Z,14.57
2018-05-12T01:45:25.887Z,13.55
2018-05-12T01:45:57.512Z,13.60
2018-05-12T01:46:29.126Z,14.43
2018-05-12T01:47:00.791Z,13.23
2018-05-12T01:47:32.436Z,13.57
2018-05-12T01:48:04.067Z,13.80
2018-05-12T01:48:35.695Z,14.10
2018-05-12T01:49:07.327Z,14.73
2018-05-12T01:49:38.951Z,13.48
2018-05-12T01:50:10.614Z,14.40
2018-05-12T01:50:42.243Z,14.48
2018-05-12T01:51:13.875Z,14.40
2018-05-12T01:51:45.517Z,14.23
2018-05-12T01:52:17.163Z,13.35
2018-05-12T01:52:48.791Z,14.55
2018-05-12T01:53:20.439Z,13.70
2018-05-12T01:53:52.053Z,14.07
2018-05-12T01:54:23.681Z,14.13
2018-05-12T01:54:55.308Z,14.38
2018-05-12T01:55:26.952Z,14.05
2018-05-12T01:55:58.597Z,13.30
2018-05-12T01:56:30.237Z,14.27
2018-05-12T01:57:01.905Z,14.52
2018-05-12T01:57:33.528Z,14.63
2018-05-12T01:58:05.209Z,14.95
2018-05-12T01:58:36.863Z,14.63
2018-05-12T01:59:08.493Z,13.60
2018-05-12T01:59:40.122Z,14.23
2018-05-12T02:00:11.800Z,13.73
2018-05-12T02:00:43.437Z,14.32
2018-05-12T02:01:15.098Z,14.93
2018-05-12T02:01:46.743Z,14.63
2018-05-12T02:02:18.378Z,14.30
2018-05-12T02:02:50.041Z,15.07
2018-05-12T02:03:21.670Z,14.93
2018-05-12T02:03:53.383Z,13.15
2018-05-12T02:04:24.985Z,14.07
2018-05-12T02:04:56.657Z,14.90
2018-05-12T02:05:28.307Z,13.95
2018-05-12T02:05:59.928Z,14.52
2018-05-12T02:06:31.553Z,14.55
2018-05-12T02:07:03.210Z,13.98
2018-05-12T02:07:34.843Z,14.68
2018-05-12T02:08:06.498Z,14.10
2018-05-12T02:08:38.157Z,15.55
2018-05-12T02:09:09.772Z,13.75
2018-05-12T02:09:41.436Z,14.25
2018-05-12T02:10:13.105Z,14.40
2018-05-12T02:10:44.729Z,15.05
2018-05-12T02:11:16.365Z,14.95
2018-05-12T02:11:48.008Z,14.40
2018-05-12T02:12:19.701Z,14.50
2018-05-12T02:12:51.337Z,14.93
2018-05-12T02:13:22.972Z,16.05
2018-05-12T02:13:54.631Z,15.30
2018-05-12T02:14:26.286Z,15.45
2018-05-12T02:14:57.921Z,15.32
2018-05-12T02:15:29.553Z,14.73
2018-05-12T02:16:01.215Z,14.63
2018-05-12T02:16:32.870Z,14.75
2018-05-12T02:17:04.496Z,15.35
2018-05-12T02:17:36.157Z,14.93
2018-05-12T02:18:07.788Z,14.98
2018-05-12T02:18:39.404Z,14.45
2018-05-12T02:19:11.061Z,15.68
2018-05-12T02:19:42.711Z,15.23
2018-05-12T02:20:14.370Z,14.38
2018-05-12T02:20:46.105Z,15.32
2018-05-12T02:21:17.784Z,14.85
2018-05-12T02:21:49.429Z,15.32
2018-05-12T02:22:21.070Z,15.07
2018-05-12T02:22:52.701Z,14.98
2018-05-12T02:23:24.308Z,14.50
2018-05-12T02:23:55.934Z,15.38
2018-05-12T02:24:27.565Z,15.88
2018-05-12T02:24:59.204Z,15.88
2018-05-12T02:25:30.823Z,16.08
2018-05-12T02:26:02.462Z,15.88
2018-05-12T02:26:34.116Z,15.75
2018-05-12T02:27:05.785Z,14.65
2018-05-12T02:27:37.458Z,15.38
2018-05-12T02:28:09.090Z,15.00
2018-05-12T02:28:40.706Z,15.48
2018-05-12T02:29:12.356Z,15.25
2018-05-12T02:29:43.971Z,14.93
2018-05-12T02:30:15.617Z,14.32
2018-05-12T02:30:47.260Z,14.02
2018-05-12T02:31:18.925Z,14.95
2018-05-12T02:31:50.553Z,15.52
2018-05-12T02:32:22.184Z,15.13
2018-05-12T02:32:53.821Z,14.70
2018-05-12T02:33:25.447Z,15.30
2018-05-12T02:33:57.097Z,15.25
2018-05-12T02:34:28.744Z,16.00
2018-05-12T02:35:00.379Z,16.00
2018-05-12T02:35:32.048Z,14.65
2018-05-12T02:36:03.685Z,15.45
2018-05-12T02:36:35.345Z,15.30
2018-05-12T02:37:06.977Z,15.65
2018-05-12T02:37:38.639Z,15.38
2018-05-12T02:38:10.337Z,15.38
2018-05-12T02:38:41.989Z,14.87
2018-05-12T02:39:13.674Z,14.43
2018-05-12T02:39:45.298Z,15.40
2018-05-12T02:40:16.966Z,15.53
2018-05-12T02:40:48.741Z,14.30
2018-05-12T02:41:20.414Z,15.63
2018-05-12T02:41:52.067Z,15.38
2018-05-12T02:42:23.721Z,14.43
2018-05-12T02:42:55.368Z,15.23
2018-05-12T02:43:27.038Z,15.30
2018-05-12T02:43:58.667Z,15.10
2018-05-12T02:44:30.288Z,14.90
2018-05-12T02:45:01.909Z,15.52
2018-05-12T02:45:33.560Z,15.02
2018-05-12T02:46:05.209Z,14.07
2018-05-12T02:46:36.847Z,14.35
2018-05-12T02:47:08.496Z,15.15
2018-05-12T02:47:40.159Z,15.77
2018-05-12T02:48:11.811Z,14.30
2018-05-12T02:48:43.434Z,15.35
2018-05-12T02:49:15.097Z,15.27
2018-05-12T02:49:46.735Z,14.80
2018-05-12T02:50:18.403Z,15.15
2018-05-12T02:50:50.069Z,15.20
2018-05-12T02:51:21.723Z,15.88
2018-05-12T02:51:53.357Z,15.88
2018-05-12T02:52:25.015Z,15.82
2018-05-12T02:52:56.662Z,14.73
2018-05-12T02:53:28.289Z,15.48
2018-05-12T02:53:59.925Z,15.40
2018-05-12T02:54:31.577Z,15.82
2018-05-12T02:55:03.258Z,15.07
2018-05-12T02:55:34.879Z,16.02
2018-05-12T02:56:06.505Z,15.63
2018-05-12T02:56:38.170Z,14.57
2018-05-12T02:57:09.787Z,16.60
2018-05-12T02:57:41.409Z,15.25
2018-05-12T02:58:13.049Z,14.77
2018-05-12T02:58:44.683Z,15.55
2018-05-12T02:59:16.301Z,15.15
2018-05-12T02:59:47.938Z,16.37
2018-05-12T03:00:19.560Z,15.35
2018-05-12T03:00:51.207Z,14.90
2018-05-12T03:01:22.853Z,15.45
2018-05-12T03:01:54.472Z,14.82
2018-05-12T03:02:26.094Z,14.73
2018-05-12T03:02:57.744Z,15.75
2018-05-12T03:03:29.358Z,15.15
2018-05-12T03:04:01.364Z,15.40
2018-05-12T03:04:32.986Z,16.23
2018-05-12T03:05:04.647Z,16.60
2018-05-12T03:05:36.299Z,14.95
2018-05-12T03:06:07.978Z,15.48
2018-05-12T03:06:39.634Z,16.27
2018-05-12T03:07:11.283Z,15.25
2018-05-12T03:07:42.905Z,15.65
2018-05-12T03:08:14.560Z,15.77
2018-05-12T03:08:46.195Z,15.40
2018-05-12T03:09:17.837Z,15.57
2018-05-12T03:09:49.474Z,15.05
2018-05-12T03:10:21.119Z,15.30
2018-05-12T03:10:52.753Z,14.70
2018-05-12T03:11:24.393Z,14.87
2018-05-12T03:11:56.025Z,15.45
2018-05-12T03:12:35.984Z,15.50
2018-05-12T03:13:07.626Z,16.10
2018-05-12T03:13:39.261Z,16.15
2018-05-12T03:14:10.943Z,15.13
2018-05-12T03:14:42.575Z,14.23
2018-05-12T03:15:14.241Z,14.95
2018-05-12T03:15:45.900Z,14.75
2018-05-12T03:16:17.531Z,14.85
2018-05-12T03:16:49.155Z,16.20
2018-05-12T03:17:20.806Z,15.00
2018-05-12T03:17:52.439Z,15.70
2018-05-12T03:18:24.080Z,14.90
2018-05-12T03:18:55.808Z,15.50
2018-05-12T03:19:27.463Z,15.48
2018-05-12T03:19:59.138Z,14.98
2018-05-12T03:20:30.797Z,14.73
2018-05-12T03:21:02.467Z,15.43
2018-05-12T03:21:34.104Z,15.00
2018-05-12T03:22:05.788Z,15.23
2018-05-12T03:22:37.454Z,15.57
2018-05-12T03:23:09.077Z,14.15
2018-05-12T03:23:40.686Z,13.73
2018-05-12T03:24:12.338Z,14.85
2018-05-12T03:24:43.966Z,15.20
2018-05-12T03:25:15.661Z,15.98
2018-05-12T03:25:47.303Z,14.98
2018-05-12T03:26:18.967Z,14.13
2018-05-12T03:26:50.628Z,16.00
2018-05-12T03:27:22.288Z,15.43
2018-05-12T03:27:53.940Z,15.52
2018-05-12T03:28:25.582Z,14.63
2018-05-12T03:28:57.222Z,15.30
2018-05-12T03:29:28.851Z,15.65
2018-05-12T03:30:00.513Z,14.77
2018-05-12T03:30:32.159Z,15.15
2018-05-12T03:31:03.822Z,15.43
2018-05-12T03:31:35.506Z,15.25
2018-05-12T03:32:07.158Z,15.65
2018-05-12T03:32:38.804Z,15.02
2018-05-12T03:33:10.418Z,14.82
2018-05-12T03:33:42.064Z,15.48
2018-05-12T03:34:13.709Z,14.93
2018-05-12T03:34:45.342Z,14.87
2018-05-12T03:35:16.958Z,15.20
2018-05-12T03:35:48.606Z,14.25
2018-05-12T03:36:20.219Z,14.77
2018-05-12T03:36:51.874Z,14.80
2018-05-12T03:37:23.502Z,15.15
2018-05-12T03:37:55.160Z,15.25
2018-05-12T03:38:26.800Z,14.95
2018-05-12T03:38:58.414Z,15.98
2018-05-12T03:39:30.046Z,15.65
2018-05-12T03:40:01.700Z,15.43
2018-05-12T03:40:33.352Z,15.70
2018-05-12T03:41:05.012Z,15.00
2018-05-12T03:41:36.658Z,15.65
2018-05-12T03:42:08.316Z,15.10
2018-05-12T03:42:39.988Z,15.18
2018-05-12T03:43:11.618Z,15.23
2018-05-12T03:43:43.244Z,14.57
2018-05-12T03:44:14.864Z,15.00
2018-05-12T03:44:46.488Z,16.15
2018-05-12T03:45:18.152Z,16.17
2018-05-12T03:45:49.808Z,15.73
2018-05-12T03:46:21.466Z,14.30
2018-05-12T03:46:53.096Z,15.77
2018-05-12T03:47:24.717Z,15.32
2018-05-12T03:47:56.348Z,16.35
2018-05-12T03:48:27.980Z,15.95
2018-05-12T03:48:59.612Z,16.02
2018-05-12T03:49:31.244Z,15.27
2018-05-12T03:50:02.930Z,15.60
2018-05-12T03:50:34.554Z,15.65
2018-05-12T03:51:06.197Z,15.80
2018-05-12T03:51:37.807Z,16.50
2018-05-12T03:52:09.438Z,15.75
2018-05-12T03:52:41.086Z,16.05
2018-05-12T03:53:12.758Z,15.32
2018-05-12T03:53:44.392Z,15.70
2018-05-12T03:54:16.054Z,16.00
2018-05-12T03:54:47.685Z,16.30
2018-05-12T03:55:19.356Z,16.35
2018-05-12T03:55:51.024Z,15.77
2018-05-12T03:56:22.671Z,15.18
2018-05-12T03:56:54.308Z,15.55
2018-05-12T03:57:25.936Z,16.30
2018-05-12T03:57:57.571Z,16.08
2018-05-12T03:58:29.190Z,16.67
2018-05-12T03:59:00.824Z,16.40
2018-05-12T03:59:32.447Z,16.48
2018-05-12T04:00:04.167Z,16.25
2018-05-12T04:00:35.796Z,15.48
2018-05-12T04:01:07.437Z,15.52
2018-05-12T04:01:39.153Z,15.40
2018-05-12T04:02:10.756Z,15.45
2018-05-12T04:02:42.412Z,16.42
2018-05-12T04:03:14.042Z,16.55
2018-05-12T04:03:45.685Z,14.82
2018-05-12T04:04:36.010Z,16.40
2018-05-12T04:05:26.098Z,15.75
2018-05-12T04:06:16.146Z,15.38
2018-05-12T04:07:06.184Z,16.17
2018-05-12T04:07:56.264Z,16.42
2018-05-12T04:08:46.478Z,15.10
2018-05-12T04:09:36.727Z,15.90
2018-05-12T04:10:35.778Z,15.50
2018-05-12T04:11:35.356Z,16.77
2018-05-12T04:12:25.376Z,15.48
2018-05-12T04:12:57.040Z,16.00
2018-05-12T04:13:28.676Z,16.45
2018-05-12T04:14:00.328Z,15.18
2018-05-12T04:14:31.996Z,15.13
2018-05-12T04:15:03.668Z,15.10
2018-05-12T04:15:35.341Z,14.87
2018-05-12T04:16:06.994Z,15.57
2018-05-12T04:16:38.626Z,15.35
2018-05-12T04:17:10.268Z,15.15
2018-05-12T04:17:41.926Z,15.82
2018-05-12T04:18:13.558Z,14.70
2018-05-12T04:18:45.239Z,14.90
2018-05-12T04:19:16.886Z,15.50
2018-05-12T04:19:48.512Z,15.82
2018-05-12T04:20:20.160Z,15.65
2018-05-12T04:20:51.805Z,15.20
2018-05-12T04:21:23.431Z,15.73
2018-05-12T04:21:55.064Z,15.55
2018-05-12T04:22:26.712Z,16.12
2018-05-12T04:22:58.350Z,16.17
2018-05-12T04:23:29.979Z,15.90
2018-05-12T04:24:01.630Z,15.52
2018-05-12T04:24:33.268Z,15.27
2018-05-12T04:25:04.925Z,15.40
2018-05-12T04:25:36.556Z,15.07
2018-05-12T04:26:08.194Z,15.05
2018-05-12T04:26:39.818Z,15.13
2018-05-12T04:27:11.436Z,15.70
2018-05-12T04:27:43.092Z,15.50
2018-05-12T04:28:14.756Z,15.35
2018-05-12T04:28:46.410Z,15.43
2018-05-12T04:29:18.049Z,14.90
2018-05-12T04:29:49.691Z,15.05
2018-05-12T04:30:21.324Z,14.70
2018-05-12T04:30:52.972Z,14.85
2018-05-12T04:31:24.594Z,15.32
2018-05-12T04:31:56.206Z,15.18
2018-05-12T04:32:27.851Z,14.68
2018-05-12T04:32:59.504Z,15.63
2018-05-12T04:33:31.129Z,15.13
2018-05-12T04:34:02.786Z,15.30
2018-05-12T04:34:34.434Z,14.70
2018-05-12T04:35:06.074Z,15.05
2018-05-12T04:35:37.709Z,15.38
2018-05-12T04:36:09.392Z,15.32
2018-05-12T04:36:41.014Z,15.52
2018-05-12T04:37:12.658Z,14.57
2018-05-12T04:37:44.301Z,14.87
2018-05-12T04:38:15.952Z,15.20
2018-05-12T04:38:47.584Z,15.48
2018-05-12T04:39:19.234Z,14.70
2018-05-12T04:39:50.879Z,14.63
2018-05-12T04:40:22.500Z,16.17
2018-05-12T04:40:54.124Z,14.75
2018-05-12T04:41:25.738Z,14.87
2018-05-12T04:41:57.376Z,14.82
2018-05-12T04:42:29.005Z,14.20
2018-05-12T04:43:00.622Z,14.87
2018-05-12T04:43:32.266Z,15.10
2018-05-12T04:44:03.920Z,15.73
2018-05-12T04:44:35.548Z,15.00
2018-05-12T04:45:07.175Z,15.52
2018-05-12T04:45:38.824Z,15.57
2018-05-12T04:46:10.438Z,14.93
2018-05-12T04:46:42.058Z,14.35
2018-05-12T04:47:13.692Z,15.20
2018-05-12T04:47:45.308Z,14.10
2018-05-12T04:48:16.936Z,15.07
2018-05-12T04:48:48.574Z,14.70
2018-05-12T04:49:20.240Z,14.50
2018-05-12T04:49:51.864Z,15.07
2018-05-12T04:50:23.484Z,14.00
2018-05-12T04:50:55.130Z,13.93
2018-05-12T04:51:26.754Z,13.55
2018-05-12T04:51:58.420Z,14.35
2018-05-12T04:52:30.064Z,14.27
2018-05-12T04:53:01.704Z,14.63
2018-05-12T04:53:33.322Z,15.00
2018-05-12T04:54:04.965Z,14.90
2018-05-12T04:54:36.612Z,14.07
2018-05-12T04:55:08.256Z,14.13
2018-05-12T04:55:39.906Z,14.48
2018-05-12T04:56:11.558Z,14.73
2018-05-12T04:56:43.194Z,14.30
2018-05-12T04:57:14.796Z,14.10
2018-05-12T04:57:46.430Z,13.65
2018-05-12T04:58:18.067Z,15.20
2018-05-12T04:58:49.700Z,13.60
2018-05-12T04:59:21.396Z,13.98
2018-05-12T04:59:53.020Z,14.40
2018-05-12T05:00:24.640Z,13.98
2018-05-12T05:00:56.271Z,13.62
2018-05-12T05:01:27.906Z,13.45
2018-05-12T05:01:59.548Z,14.55
2018-05-12T05:02:31.188Z,14.35
2018-05-12T05:03:02.872Z,13.40
2018-05-12T05:03:34.504Z,13.95
2018-05-12T05:04:06.145Z,13.98
2018-05-12T05:04:37.800Z,15.35
2018-05-12T05:05:09.442Z,14.32
2018-05-12T05:05:41.076Z,13.90
2018-05-12T05:06:12.704Z,14.20
2018-05-12T05:06:44.348Z,14.30
2018-05-12T05:07:15.969Z,13.80
2018-05-12T05:07:47.588Z,13.45
2018-05-12T05:08:19.286Z,13.70
2018-05-12T05:08:50.895Z,13.35
2018-05-12T05:09:22.542Z,13.05
2018-05-12T05:09:54.190Z,13.32
2018-05-12T05:10:25.820Z,13.55
2018-05-12T05:10:57.464Z,12.68
2018-05-12T05:11:29.107Z,12.85
2018-05-12T05:12:00.761Z,12.57
2018-05-12T05:12:32.410Z,14.15
2018-05-12T05:13:04.073Z,13.43
2018-05-12T05:13:35.718Z,12.75
2018-05-12T05:14:07.395Z,13.25
2018-05-12T05:14:39.032Z,13.25
2018-05-12T05:15:10.724Z,13.38
2018-05-12T05:15:42.287Z,13.20
2018-05-12T05:16:13.934Z,13.00
2018-05-12T05:16:45.586Z,12.82
2018-05-12T05:17:17.230Z,13.57
2018-05-12T05:17:48.868Z,13.23
2018-05-12T05:18:20.508Z,12.95
2018-05-12T05:18:52.162Z,13.05
2018-05-12T05:19:23.781Z,12.85
2018-05-12T05:19:55.428Z,13.23
2018-05-12T05:20:27.094Z,12.35
2018-05-12T05:20:58.726Z,13.00
2018-05-12T05:21:30.374Z,13.25
2018-05-12T05:22:02.050Z,12.68
2018-05-12T05:22:33.702Z,12.85
2018-05-12T05:23:05.312Z,12.48
2018-05-12T05:23:36.959Z,13.30
2018-05-12T05:24:08.595Z,12.43
2018-05-12T05:24:40.226Z,13.20
2018-05-12T05:25:11.882Z,12.48
2018-05-12T05:25:43.516Z,13.35
2018-05-12T05:26:15.142Z,13.05
2018-05-12T05:26:46.777Z,13.57
2018-05-12T05:27:18.423Z,12.82
2018-05-12T05:27:50.072Z,12.50
2018-05-12T05:28:21.704Z,11.77
2018-05-12T05:28:53.326Z,13.10
2018-05-12T05:29:25.074Z,13.13
2018-05-12T05:29:56.604Z,12.57
2018-05-12T05:30:28.266Z,12.37
2018-05-12T05:30:59.902Z,12.88
2018-05-12T05:31:31.525Z,12.57
2018-05-12T05:32:03.167Z,12.30
2018-05-12T05:32:34.778Z,12.20
2018-05-12T05:33:06.459Z,12.55
2018-05-12T05:33:38.122Z,12.93
2018-05-12T05:34:09.854Z,12.82
2018-05-12T05:34:41.557Z,13.23
2018-05-12T05:35:13.235Z,12.18
2018-05-12T05:35:44.826Z,12.60
2018-05-12T05:36:16.453Z,12.57
2018-05-12T05:36:48.092Z,12.25
2018-05-12T05:37:19.746Z,12.52
2018-05-12T05:37:51.361Z,12.13
2018-05-12T05:38:23.007Z,12.02
2018-05-12T05:38:54.623Z,12.25
2018-05-12T05:39:26.273Z,12.00
2018-05-12T05:39:57.912Z,12.18
2018-05-12T05:40:29.573Z,12.20
2018-05-12T05:41:01.207Z,12.18
2018-05-12T05:41:32.912Z,12.30
2018-05-12T05:42:04.564Z,12.37
2018-05-12T05:42:36.206Z,11.80
2018-05-12T05:43:07.854Z,11.98
2018-05-12T05:43:39.510Z,11.45
2018-05-12T05:44:11.154Z,11.80
2018-05-12T05:44:42.767Z,11.63
2018-05-12T05:45:14.397Z,12.23
2018-05-12T05:45:46.054Z,12.70
2018-05-12T05:46:17.712Z,12.50
2018-05-12T05:46:49.345Z,11.40
2018-05-12T05:47:20.987Z,12.15
2018-05-12T05:47:52.642Z,12.52
2018-05-12T05:48:24.265Z,12.07
2018-05-12T05:48:55.910Z,12.32
2018-05-12T05:49:27.560Z,12.02
2018-05-12T05:49:59.182Z,11.82
2018-05-12T05:50:30.798Z,12.52
2018-05-12T05:51:02.454Z,12.82
2018-05-12T05:51:34.096Z,12.05
2018-05-12T05:52:05.730Z,12.10
2018-05-12T05:52:37.354Z,11.90
2018-05-12T05:53:09.003Z,12.13
2018-05-12T05:53:40.637Z,12.23
2018-05-12T05:54:12.277Z,12.40
2018-05-12T05:54:43.910Z,12.40
2018-05-12T05:55:15.787Z,12.75
2018-05-12T05:55:47.417Z,12.23
2018-05-12T05:56:19.088Z,11.73
2018-05-12T05:56:50.769Z,12.05
2018-05-12T05:57:22.398Z,12.02
2018-05-12T05:57:54.038Z,12.85
2018-05-12T05:58:25.666Z,12.18
2018-05-12T05:58:57.322Z,11.75
2018-05-12T05:59:28.967Z,12.23
2018-05-12T06:00:00.594Z,11.73
2018-05-12T06:00:32.252Z,12.27
2018-05-12T06:01:03.921Z,11.43
2018-05-12T06:01:35.604Z,12.35
2018-05-12T06:02:07.197Z,12.02
2018-05-12T06:02:38.836Z,12.52
2018-05-12T06:03:10.468Z,12.43
2018-05-12T06:08:32.772Z,12.90
2018-05-12T06:09:04.435Z,12.63
2018-05-12T06:09:36.082Z,13.20
2018-05-12T06:10:07.776Z,12.23
2018-05-12T06:10:39.423Z,12.95
2018-05-12T06:11:11.043Z,12.43
2018-05-12T06:11:42.708Z,12.25
2018-05-12T06:12:14.353Z,12.70
2018-05-12T06:12:53.637Z,12.48
2018-05-12T06:13:25.295Z,12.35
2018-05-12T06:13:56.943Z,12.65
2018-05-12T06:14:28.562Z,13.10
2018-05-12T06:15:00.230Z,11.80
2018-05-12T06:15:31.850Z,12.45
2018-05-12T06:16:03.489Z,13.07
2018-05-12T06:16:35.152Z,12.35
2018-05-12T06:17:06.784Z,12.23
2018-05-12T06:17:38.452Z,12.50
2018-05-12T06:18:10.192Z,12.48
2018-05-12T06:18:41.772Z,13.30
2018-05-12T06:19:13.442Z,12.25
2018-05-12T06:19:45.083Z,12.52
2018-05-12T06:20:16.748Z,12.32
2018-05-12T06:20:48.411Z,12.60
2018-05-12T06:21:20.052Z,12.63
2018-05-12T06:21:51.700Z,12.55
2018-05-12T06:22:23.332Z,13.23
2018-05-12T06:22:54.968Z,12.98
2018-05-12T06:23:26.595Z,12.95
2018-05-12T06:23:58.237Z,12.13
2018-05-12T06:24:29.888Z,12.48
2018-05-12T06:25:01.544Z,13.02
2018-05-12T06:25:33.206Z,12.60
2018-05-12T06:26:04.846Z,12.95
2018-05-12T06:26:36.513Z,12.77
2018-05-12T06:27:08.174Z,12.73
2018-05-12T06:27:39.815Z,13.15
2018-05-12T06:28:11.475Z,12.85
2018-05-12T06:28:43.118Z,13.18
2018-05-12T06:29:14.736Z,13.73
2018-05-12T06:29:46.381Z,13.07
2018-05-12T06:30:18.034Z,12.73
2018-05-12T06:30:49.686Z,12.40
2018-05-12T06:31:21.344Z,12.70
2018-05-12T06:31:52.965Z,13.40
2018-05-12T06:32:24.772Z,13.40
2018-05-12T06:32:56.392Z,13.73
2018-05-12T06:33:28.033Z,13.27
2018-05-12T06:33:59.664Z,13.05
2018-05-12T06:34:31.337Z,12.15
2018-05-12T06:35:03.002Z,13.40
2018-05-12T06:35:34.627Z,13.82
2018-05-12T06:36:06.295Z,13.82
2018-05-12T06:36:37.937Z,13.48
2018-05-12T06:37:09.568Z,12.88
2018-05-12T06:37:41.256Z,14.23
2018-05-12T06:38:12.894Z,12.65
2018-05-12T06:38:44.506Z,13.10
2018-05-12T06:39:16.180Z,13.38
2018-05-12T06:39:47.834Z,14.15
2018-05-12T06:40:19.492Z,13.10
2018-05-12T06:40:51.114Z,13.52
2018-05-12T06:41:22.722Z,13.48
2018-05-12T06:41:54.368Z,13.13
2018-05-12T06:42:26.038Z,13.15
2018-05-12T06:42:57.674Z,14.00
2018-05-12T06:43:29.310Z,14.13
2018-05-12T06:44:00.935Z,14.52
2018-05-12T06:44:32.571Z,13.60
2018-05-12T06:45:04.245Z,13.38
2018-05-12T06:45:36.160Z,13.55
2018-05-12T06:46:07.787Z,13.88
2018-05-12T06:46:39.412Z,13.43
2018-05-12T06:47:11.056Z,13.70
2018-05-12T06:47:42.705Z,13.75
2018-05-12T06:48:14.361Z,14.02
2018-05-12T06:48:46.081Z,13.02
2018-05-12T06:49:17.728Z,14.15
2018-05-12T06:49:49.359Z,14.32
2018-05-12T06:50:21.049Z,13.98
2018-05-12T06:50:52.685Z,13.98
2018-05-12T06:51:24.333Z,12.77
2018-05-12T06:51:55.970Z,12.93
2018-05-12T06:52:27.634Z,13.43
2018-05-12T06:52:59.280Z,13.85
2018-05-12T06:53:30.897Z,13.90
2018-05-12T06:54:02.557Z,14.07
2018-05-12T06:54:34.210Z,14.45
2018-05-12T06:55:05.843Z,13.90
2018-05-12T06:55:37.476Z,13.98
2018-05-12T06:56:09.102Z,13.75
2018-05-12T06:56:40.733Z,14.55